Aérodrome :
LOGIN :

S'inscrire | Disclaimer

   EN    FR    IT 

 










Légende :    VFR   VFR Marginal   IFR   IFR Intensif   IFR Très Intensif
Visi : 
Plafond : 
>= 8 km
>= 3000ft
5 à 8 km
1000 à 3000 ft
1500m à 5 km
500 à 1000 ft
800 à 1500m
200 à 500 ft
< 800m
< 200 ft
Symboles :   Orages  Brouillard  Fortes neiges  Fortes précipitations  Vent > 20 kt
SIGMETs :   Divers  Orages  Givrage  Turbulence  Onde Orograph.  Cendres Volcan.







- Altitude de l'aérodrome : 628 ft
- Code IATA : CMR
- Voir les cartes d'approche


LFGA - Colmar-Houssen

DERNIER METAR :
  • 240430Z AUTO 00000KT CAVOK 15/14 Q1017

METARs EXPIRÉS :
  • 240400Z AUTO 00000KT CAVOK 15/14 Q1016
  • 240330Z AUTO VRB03KT CAVOK 16/15 Q1016
  • 240300Z AUTO 34003KT CAVOK 16/15 Q1016
  • 240230Z AUTO 01002KT CAVOK 17/15 Q1016
  • 240200Z AUTO VRB01KT CAVOK 17/15 Q1016

TAF N/A
Pas de NOTAMs connus pour ce terrain.



MET'MAP, la Météo Aéronautique d'un coup d'oeil ! - Copyright ORBIFLY Décembre 2007 - Disclaimer

ORBIFLY MET'MAP TEAM :

Programmation & Développement : Alexandra Zaïnal
Conception & Développement : Baudouin d'Aumeries
Co-Programmation & Développement : Marc-Olivier Méhu
Soutien technique & logistique : Manuel Goepfert

Contact : metmap@orbifly.com




SOURCES & CREDITS :

   NOAA